Time;durP1;ratioP1;P1;durP2;ratioP2;P2;SDS_P1;SDS_P2;PMS_P1;PMS_P2;Temp;Humidity;BMP_temperature;BMP_pressure;BME280_temperature;BME280_humidity;BME280_pressure;Samples;Min_cycle;Max_cycle;Signal;HPM_P1;HPM_P2
2021/11/24 00:01:51;;;;;;;0.10;0.10;;;;;;;;;;5121087;28;20203;-76
2021/11/24 00:04:17;;;;;;;0.10;0.10;;;;;;;;;;5119354;28;20276;-75
2021/11/24 00:06:44;;;;;;;0.10;0.10;;;;;;;;;;5114217;28;20242;-75
2021/11/24 00:09:11;;;;;;;0.10;0.10;;;;;;;;;;5121779;28;20216;-75
2021/11/24 00:11:38;;;;;;;0.10;0.10;;;;;;;;;;5125078;28;20204;-76
2021/11/24 00:14:04;;;;;;;0.10;0.10;;;;;;;;;;5125385;28;20218;-76
2021/11/24 00:16:31;;;;;;;0.10;0.10;;;;;;;;;;5125329;28;20224;-76
2021/11/24 00:18:57;;;;;;;0.10;0.10;;;;;;;;;;5125668;28;20222;-76
2021/11/24 00:21:23;;;;;;;0.10;0.10;;;;;;;;;;5123208;28;20385;-76
2021/11/24 00:23:50;;;;;;;0.10;0.10;;;;;;;;;;5113346;28;20213;-75
2021/11/24 00:26:18;;;;;;;0.10;0.10;;;;;;;;;;5116030;28;20206;-75
2021/11/24 00:28:44;;;;;;;0.10;0.10;;;;;;;;;;5124817;28;20202;-75
2021/11/24 00:31:10;;;;;;;0.10;0.10;;;;;;;;;;5110319;28;20546;-75
2021/11/24 00:33:37;;;;;;;0.10;0.10;;;;;;;;;;5125281;28;20215;-75
2021/11/24 00:36:04;;;;;;;0.10;0.10;;;;;;;;;;5120985;28;20206;-76
2021/11/24 00:38:30;;;;;;;0.10;0.10;;;;;;;;;;5119421;28;20444;-76
2021/11/24 00:40:57;;;;;;;1.67;1.60;;;;;;;;;;5114050;28;20391;-75
2021/11/24 00:43:26;;;;;;;0.10;0.10;;;;;;;;;;5124823;28;20198;-75
2021/11/24 00:45:53;;;;;;;0.10;0.10;;;;;;;;;;5122895;28;20400;-76
2021/11/24 00:48:19;;;;;;;0.10;0.10;;;;;;;;;;5123594;28;20227;-76
2021/11/24 00:50:46;;;;;;;0.10;0.10;;;;;;;;;;5118157;28;20209;-76
2021/11/24 00:53:12;;;;;;;0.10;0.10;;;;;;;;;;5116991;28;20485;-76
2021/11/24 00:55:39;;;;;;;0.10;0.10;;;;;;;;;;5114559;28;20197;-75
2021/11/24 00:58:05;;;;;;;0.10;0.10;;;;;;;;;;5120205;28;20250;-76
2021/11/24 01:00:33;;;;;;;0.10;0.10;;;;;;;;;;5124618;28;20202;-75
2021/11/24 01:03:00;;;;;;;0.10;0.10;;;;;;;;;;5122013;28;20543;-76
2021/11/24 01:05:26;;;;;;;0.10;0.10;;;;;;;;;;5113133;28;20230;-75
2021/11/24 01:07:52;;;;;;;0.10;0.10;;;;;;;;;;5124277;28;20217;-76
2021/11/24 01:10:19;;;;;;;0.10;0.10;;;;;;;;;;5112280;28;20226;-75
2021/11/24 01:12:47;;;;;;;0.10;0.10;;;;;;;;;;5124364;28;20252;-75
2021/11/24 01:15:14;;;;;;;0.10;0.10;;;;;;;;;;5110152;28;20347;-75
2021/11/24 01:17:41;;;;;;;0.10;0.10;;;;;;;;;;5123720;28;20235;-74
2021/11/24 01:20:09;;;;;;;0.10;0.10;;;;;;;;;;5118828;28;20296;-74
2021/11/24 01:22:35;;;;;;;0.10;0.10;;;;;;;;;;5123587;28;20197;-75
2021/11/24 01:25:02;;;;;;;0.10;0.10;;;;;;;;;;5107638;28;20223;-75
2021/11/24 01:27:29;;;;;;;0.10;0.10;;;;;;;;;;5123755;28;20199;-74
2021/11/24 01:29:55;;;;;;;0.10;0.10;;;;;;;;;;5119513;28;20401;-74
2021/11/24 01:32:22;;;;;;;0.10;0.10;;;;;;;;;;5111488;28;20214;-74
2021/11/24 01:34:50;;;;;;;7.20;6.90;;;;;;;;;;5123099;28;20225;-74
2021/11/24 01:37:16;;;;;;;0.10;0.10;;;;;;;;;;5110718;28;20226;-75
2021/11/24 01:39:42;;;;;;;0.10;0.10;;;;;;;;;;5106836;28;20206;-76
2021/11/24 01:42:11;;;;;;;0.10;0.10;;;;;;;;;;5109407;28;20392;-75
2021/11/24 01:44:38;;;;;;;0.10;0.10;;;;;;;;;;5123479;28;20199;-76
2021/11/24 01:47:05;;;;;;;0.10;0.10;;;;;;;;;;5122626;28;20224;-75
2021/11/24 01:49:32;;;;;;;0.10;0.10;;;;;;;;;;5111928;28;20225;-75
2021/11/24 01:52:00;;;;;;;0.20;0.20;;;;;;;;;;5123361;28;20497;-75
2021/11/24 01:54:27;;;;;;;0.10;0.10;;;;;;;;;;5123035;28;20201;-75
2021/11/24 01:56:54;;;;;;;0.10;0.10;;;;;;;;;;5123504;28;20232;-75
2021/11/24 01:59:21;;;;;;;0.10;0.10;;;;;;;;;;5115696;28;20225;-74
2021/11/24 02:01:48;;;;;;;0.53;0.53;;;;;;;;;;5123121;28;20225;-75
2021/11/24 02:04:15;;;;;;;0.10;0.10;;;;;;;;;;5114168;28;20221;-75
2021/11/24 02:06:42;;;;;;;0.10;0.10;;;;;;;;;;5123305;28;20397;-74
2021/11/24 02:09:10;;;;;;;0.10;0.10;;;;;;;;;;5117303;28;20204;-75
2021/11/24 02:11:38;;;;;;;0.10;0.10;;;;;;;;;;5116053;28;20208;-75
2021/11/24 02:14:04;;;;;;;0.10;0.10;;;;;;;;;;5122751;28;20432;-74
2021/11/24 02:16:31;;;;;;;0.10;0.10;;;;;;;;;;5123365;28;20202;-74
2021/11/24 02:18:57;;;;;;;0.10;0.10;;;;;;;;;;5122980;28;20595;-75
2021/11/24 02:21:25;;;;;;;0.10;0.10;;;;;;;;;;5113925;28;20225;-75
2021/11/24 02:23:52;;;;;;;0.10;0.10;;;;;;;;;;5118623;28;20213;-75
2021/11/24 02:26:18;;;;;;;0.10;0.10;;;;;;;;;;5115810;28;20502;-75
2021/11/24 02:28:44;;;;;;;0.17;0.17;;;;;;;;;;5116060;28;20202;-76
2021/11/24 02:31:18;;;;;;;0.10;0.10;;;;;;;;;;5120160;28;20499;-74
2021/11/24 02:33:48;;;;;;;0.10;0.10;;;;;;;;;;5106550;28;20198;-75
2021/11/24 02:36:15;;;;;;;0.10;0.10;;;;;;;;;;5114172;28;20224;-75
2021/11/24 02:38:42;;;;;;;0.10;0.10;;;;;;;;;;5123396;28;20219;-74
2021/11/24 02:41:09;;;;;;;0.10;0.10;;;;;;;;;;5123432;28;20202;-74
2021/11/24 02:43:35;;;;;;;0.10;0.10;;;;;;;;;;5122598;28;20204;-74
2021/11/24 02:46:02;;;;;;;0.10;0.10;;;;;;;;;;5122922;28;20202;-74
2021/11/24 02:48:28;;;;;;;0.10;0.10;;;;;;;;;;5123046;28;20201;-75
2021/11/24 02:50:55;;;;;;;0.10;0.10;;;;;;;;;;5115955;28;20206;-75
2021/11/24 02:53:24;;;;;;;0.10;0.10;;;;;;;;;;5122920;28;20377;-75
2021/11/24 02:55:52;;;;;;;0.10;0.10;;;;;;;;;;5113476;28;20351;-75
2021/11/24 02:58:19;;;;;;;0.10;0.10;;;;;;;;;;5120621;28;20234;-75
2021/11/24 03:00:45;;;;;;;0.10;0.10;;;;;;;;;;5113886;28;20314;-74
2021/11/24 03:03:12;;;;;;;0.10;0.10;;;;;;;;;;5122306;28;20266;-75
2021/11/24 03:05:38;;;;;;;0.10;0.10;;;;;;;;;;5122831;28;20240;-75
2021/11/24 03:08:05;;;;;;;0.10;0.10;;;;;;;;;;5108269;28;20215;-74
2021/11/24 03:10:32;;;;;;;0.10;0.10;;;;;;;;;;5117624;28;20397;-75
2021/11/24 03:13:00;;;;;;;0.47;0.47;;;;;;;;;;5115628;28;20231;-74
2021/11/24 03:15:27;;;;;;;0.10;0.10;;;;;;;;;;5111600;28;20229;-74
2021/11/24 03:17:54;;;;;;;0.10;0.10;;;;;;;;;;5122513;28;20229;-74
2021/11/24 03:20:24;;;;;;;0.20;0.20;;;;;;;;;;5119195;28;20209;-74
2021/11/24 03:22:51;;;;;;;0.10;0.10;;;;;;;;;;5102729;28;20502;-74
2021/11/24 03:25:17;;;;;;;0.10;0.10;;;;;;;;;;5105410;28;20199;-74
2021/11/24 03:27:44;;;;;;;0.10;0.10;;;;;;;;;;5122848;28;20459;-74
2021/11/24 03:30:13;;;;;;;0.20;0.20;;;;;;;;;;5122810;28;20205;-74
2021/11/24 03:32:39;;;;;;;0.20;0.20;;;;;;;;;;5108653;28;20202;-74
2021/11/24 03:35:06;;;;;;;0.10;0.10;;;;;;;;;;5119194;28;20206;-74
2021/11/24 03:37:33;;;;;;;0.10;0.10;;;;;;;;;;5106692;28;20383;-75
2021/11/24 03:40:00;;;;;;;0.10;0.10;;;;;;;;;;5108724;28;20233;-73
2021/11/24 03:42:26;;;;;;;0.10;0.10;;;;;;;;;;5123373;28;20199;-74
2021/11/24 03:44:53;;;;;;;0.10;0.10;;;;;;;;;;5126312;28;20202;-74
2021/11/24 03:47:21;;;;;;;0.10;0.10;;;;;;;;;;5117366;28;20214;-74
2021/11/24 03:49:47;;;;;;;0.13;0.13;;;;;;;;;;5123094;28;20535;-73
2021/11/24 03:52:14;;;;;;;0.10;0.10;;;;;;;;;;5115503;28;20423;-75
2021/11/24 03:54:40;;;;;;;0.10;0.10;;;;;;;;;;5126123;28;20210;-75
2021/11/24 03:57:07;;;;;;;0.10;0.10;;;;;;;;;;5115017;28;20202;-75
2021/11/24 03:59:33;;;;;;;0.10;0.10;;;;;;;;;;5112830;28;20229;-75
2021/11/24 04:01:59;;;;;;;0.10;0.10;;;;;;;;;;5111831;28;20442;-75
2021/11/24 04:04:27;;;;;;;0.10;0.10;;;;;;;;;;5125920;28;20411;-74
2021/11/24 04:06:54;;;;;;;0.10;0.10;;;;;;;;;;5125552;28;20502;-74
2021/11/24 04:09:20;;;;;;;0.10;0.10;;;;;;;;;;5116433;28;20217;-74
2021/11/24 04:11:46;;;;;;;0.10;0.10;;;;;;;;;;5121996;28;20283;-74
2021/11/24 04:14:13;;;;;;;0.10;0.10;;;;;;;;;;5125551;28;20225;-74
2021/11/24 04:16:39;;;;;;;0.10;0.10;;;;;;;;;;5112974;28;20211;-74
2021/11/24 04:19:06;;;;;;;0.10;0.10;;;;;;;;;;5124908;28;20222;-73
2021/11/24 04:21:34;;;;;;;0.10;0.10;;;;;;;;;;5116949;28;20200;-74
2021/11/24 04:24:00;;;;;;;0.10;0.10;;;;;;;;;;5119104;28;20255;-74
2021/11/24 04:26:27;;;;;;;0.10;0.10;;;;;;;;;;5116702;28;20202;-74
2021/11/24 04:28:53;;;;;;;0.10;0.10;;;;;;;;;;5105521;28;20248;-74
2021/11/24 04:31:20;;;;;;;0.10;0.10;;;;;;;;;;5119971;28;20393;-74
2021/11/24 04:33:47;;;;;;;0.10;0.10;;;;;;;;;;5118497;28;20374;-74
2021/11/24 04:36:13;;;;;;;0.10;0.10;;;;;;;;;;5117929;28;20212;-74
2021/11/24 04:38:41;;;;;;;0.10;0.10;;;;;;;;;;5112262;28;20225;-74
2021/11/24 04:41:07;;;;;;;0.10;0.10;;;;;;;;;;5120688;28;20293;-74
2021/11/24 04:43:38;;;;;;;0.10;0.10;;;;;;;;;;5124576;28;20205;-74
2021/11/24 04:46:05;;;;;;;0.10;0.10;;;;;;;;;;5117537;28;20265;-74
2021/11/24 04:48:31;;;;;;;0.10;0.10;;;;;;;;;;5125286;28;20251;-74
2021/11/24 04:50:58;;;;;;;0.10;0.10;;;;;;;;;;5119246;28;20270;-73
2021/11/24 04:53:24;;;;;;;0.10;0.10;;;;;;;;;;5124017;28;20198;-72
2021/11/24 04:55:52;;;;;;;0.10;0.10;;;;;;;;;;5120028;28;20204;-74
2021/11/24 04:58:18;;;;;;;0.10;0.10;;;;;;;;;;5121153;28;20239;-74
2021/11/24 05:00:45;;;;;;;0.10;0.10;;;;;;;;;;5122127;28;20265;-74
2021/11/24 05:03:11;;;;;;;0.10;0.10;;;;;;;;;;5123848;28;20251;-74
2021/11/24 05:05:38;;;;;;;0.10;0.10;;;;;;;;;;5124053;28;20543;-73
2021/11/24 05:08:05;;;;;;;0.10;0.10;;;;;;;;;;5124351;28;20250;-73
2021/11/24 05:10:31;;;;;;;0.10;0.10;;;;;;;;;;5111743;28;20259;-73
2021/11/24 05:13:00;;;;;;;0.10;0.10;;;;;;;;;;5124286;28;20249;-73
2021/11/24 05:15:29;;;;;;;0.10;0.10;;;;;;;;;;5122845;28;20205;-75
2021/11/24 05:17:58;;;;;;;0.10;0.10;;;;;;;;;;5110279;28;20225;-74
2021/11/24 05:20:26;;;;;;;0.10;0.10;;;;;;;;;;5121853;28;20217;-74
2021/11/24 05:22:53;;;;;;;0.10;0.10;;;;;;;;;;5124096;28;20271;-76
2021/11/24 05:25:20;;;;;;;0.10;0.10;;;;;;;;;;5121911;28;20201;-74
2021/11/24 05:27:46;;;;;;;0.20;0.20;;;;;;;;;;5115743;28;20199;-75
2021/11/24 05:30:14;;;;;;;0.10;0.10;;;;;;;;;;5109766;28;20220;-75
2021/11/24 05:32:41;;;;;;;0.10;0.10;;;;;;;;;;5114460;28;20210;-74
2021/11/24 05:35:08;;;;;;;0.10;0.10;;;;;;;;;;5121469;28;20247;-75
2021/11/24 05:37:34;;;;;;;0.10;0.10;;;;;;;;;;5124161;28;20198;-75
2021/11/24 05:40:01;;;;;;;0.10;0.10;;;;;;;;;;5115790;28;20226;-75
2021/11/24 05:42:28;;;;;;;0.10;0.10;;;;;;;;;;5118152;28;20399;-74
2021/11/24 05:45:02;;;;;;;0.10;0.10;;;;;;;;;;5109023;28;20213;-74
2021/11/24 05:50:23;;;;;;;0.10;0.10;;;;;;;;;;5096650;28;20367;-75
2021/11/24 05:52:49;;;;;;;0.10;0.10;;;;;;;;;;5117151;28;20202;-75
2021/11/24 05:55:16;;;;;;;0.10;0.10;;;;;;;;;;5111327;28;20202;-74
2021/11/24 05:57:42;;;;;;;0.10;0.10;;;;;;;;;;5122683;28;20375;-76
2021/11/24 06:00:09;;;;;;;0.20;0.20;;;;;;;;;;5117381;28;20222;-75
2021/11/24 06:02:37;;;;;;;0.10;0.10;;;;;;;;;;5119218;28;20489;-73
2021/11/24 06:05:04;;;;;;;0.77;0.77;;;;;;;;;;5113929;28;20223;-74
2021/11/24 06:07:30;;;;;;;0.10;0.10;;;;;;;;;;5119662;28;20198;-73
2021/11/24 06:09:56;;;;;;;0.10;0.10;;;;;;;;;;5119673;28;20500;-74
2021/11/24 06:12:23;;;;;;;0.17;0.17;;;;;;;;;;5114063;28;20273;-72
2021/11/24 06:14:49;;;;;;;0.10;0.10;;;;;;;;;;5120325;28;20200;-74
2021/11/24 06:17:16;;;;;;;0.13;0.13;;;;;;;;;;5118678;28;20201;-73
2021/11/24 06:19:44;;;;;;;0.10;0.10;;;;;;;;;;5121699;28;20233;-73
2021/11/24 06:22:10;;;;;;;0.10;0.10;;;;;;;;;;5117110;28;20228;-74
2021/11/24 06:24:37;;;;;;;0.10;0.10;;;;;;;;;;5123122;28;20198;-73
2021/11/24 06:27:03;;;;;;;0.10;0.10;;;;;;;;;;5117731;28;20255;-74
2021/11/24 06:29:30;;;;;;;0.10;0.10;;;;;;;;;;5119320;28;20222;-74
2021/11/24 06:31:56;;;;;;;0.10;0.10;;;;;;;;;;5122550;28;20205;-74
2021/11/24 06:34:23;;;;;;;0.10;0.10;;;;;;;;;;5128067;27;20453;-75
2021/11/24 06:36:53;;;;;;;0.10;0.10;;;;;;;;;;5115603;28;20210;-74
2021/11/24 06:39:19;;;;;;;0.10;0.10;;;;;;;;;;5117032;28;20213;-74
2021/11/24 06:41:46;;;;;;;0.10;0.10;;;;;;;;;;5110869;28;20389;-74
2021/11/24 06:44:12;;;;;;;0.10;0.10;;;;;;;;;;5123055;28;20209;-74
2021/11/24 06:46:39;;;;;;;0.10;0.10;;;;;;;;;;5116981;28;20240;-73
2021/11/24 06:49:05;;;;;;;0.10;0.10;;;;;;;;;;5119887;28;20476;-73
2021/11/24 06:51:31;;;;;;;0.10;0.10;;;;;;;;;;5120813;28;20205;-75
2021/11/24 06:53:59;;;;;;;0.10;0.10;;;;;;;;;;5123067;28;20205;-74
2021/11/24 06:56:26;;;;;;;0.10;0.10;;;;;;;;;;5118851;28;20263;-76
2021/11/24 06:58:52;;;;;;;0.10;0.10;;;;;;;;;;5116708;28;20424;-74
2021/11/24 07:01:19;;;;;;;0.13;0.13;;;;;;;;;;5118528;28;20201;-74
2021/11/24 07:03:45;;;;;;;0.10;0.10;;;;;;;;;;5114351;28;20213;-75
2021/11/24 07:06:11;;;;;;;0.10;0.10;;;;;;;;;;5110681;28;20217;-74
2021/11/24 07:08:38;;;;;;;0.10;0.10;;;;;;;;;;5120005;28;20216;-74
2021/11/24 07:11:06;;;;;;;0.10;0.10;;;;;;;;;;5125600;28;20212;-71
2021/11/24 07:13:32;;;;;;;0.10;0.10;;;;;;;;;;5122380;28;20276;-75
2021/11/24 07:15:58;;;;;;;0.10;0.10;;;;;;;;;;5126702;28;20202;-73
2021/11/24 07:18:25;;;;;;;0.10;0.10;;;;;;;;;;5125646;28;20212;-75
2021/11/24 07:20:52;;;;;;;0.20;0.20;;;;;;;;;;5123462;28;20225;-75
2021/11/24 07:23:18;;;;;;;0.10;0.10;;;;;;;;;;5125016;28;20202;-74
2021/11/24 07:25:44;;;;;;;0.10;0.10;;;;;;;;;;5124408;27;20504;-73
2021/11/24 07:28:13;;;;;;;0.10;0.10;;;;;;;;;;5120316;28;20229;-75
2021/11/24 07:30:39;;;;;;;0.10;0.10;;;;;;;;;;5123085;28;20235;-74
2021/11/24 07:33:06;;;;;;;0.10;0.10;;;;;;;;;;5118966;28;20226;-73
2021/11/24 07:35:33;;;;;;;0.10;0.10;;;;;;;;;;5112964;28;20206;-73
2021/11/24 07:37:59;;;;;;;0.10;0.10;;;;;;;;;;5118691;28;20269;-75
2021/11/24 07:40:26;;;;;;;0.10;0.10;;;;;;;;;;5126163;28;20405;-68
2021/11/24 07:42:53;;;;;;;0.10;0.10;;;;;;;;;;5119083;27;20209;-70
2021/11/24 07:45:20;;;;;;;0.10;0.10;;;;;;;;;;5131770;27;20205;-70
2021/11/24 07:47:47;;;;;;;0.10;0.10;;;;;;;;;;5112495;28;20206;-73
2021/11/24 07:50:13;;;;;;;0.10;0.10;;;;;;;;;;5124614;28;20198;-74
2021/11/24 07:52:40;;;;;;;0.10;0.10;;;;;;;;;;5123056;28;20207;-74
2021/11/24 07:55:07;;;;;;;0.10;0.10;;;;;;;;;;5123501;28;20205;-73
2021/11/24 07:57:33;;;;;;;0.10;0.10;;;;;;;;;;5124415;28;20240;-74
2021/11/24 08:00:00;;;;;;;0.10;0.10;;;;;;;;;;5120457;27;20236;-74
2021/11/24 08:02:27;;;;;;;0.10;0.10;;;;;;;;;;5118365;28;20511;-75
2021/11/24 08:04:54;;;;;;;0.10;0.10;;;;;;;;;;5110290;28;20433;-72
2021/11/24 08:07:20;;;;;;;0.23;0.23;;;;;;;;;;5123998;28;20266;-73
2021/11/24 08:09:47;;;;;;;0.10;0.10;;;;;;;;;;5122539;28;20215;-72
2021/11/24 08:12:13;;;;;;;0.10;0.10;;;;;;;;;;5119856;28;20210;-74
2021/11/24 08:14:40;;;;;;;0.10;0.10;;;;;;;;;;5122763;28;20202;-75
2021/11/24 08:17:06;;;;;;;0.10;0.10;;;;;;;;;;5117524;28;20248;-72
2021/11/24 08:19:34;;;;;;;0.10;0.10;;;;;;;;;;5122183;28;20229;-73
2021/11/24 08:22:00;;;;;;;0.10;0.10;;;;;;;;;;5122424;28;20218;-72
2021/11/24 08:24:28;;;;;;;0.10;0.10;;;;;;;;;;5123157;28;20434;-73
2021/11/24 08:26:54;;;;;;;0.47;0.47;;;;;;;;;;5110308;28;20203;-73
2021/11/24 08:29:21;;;;;;;0.10;0.10;;;;;;;;;;5109502;28;20371;-73
2021/11/24 08:31:47;;;;;;;0.10;0.10;;;;;;;;;;5122428;28;20202;-73
2021/11/24 08:34:14;;;;;;;0.10;0.10;;;;;;;;;;5121967;28;20226;-74
2021/11/24 08:36:42;;;;;;;0.20;0.20;;;;;;;;;;5113403;28;20213;-74
2021/11/24 08:39:08;;;;;;;0.10;0.10;;;;;;;;;;5107679;28;20210;-73
2021/11/24 08:41:35;;;;;;;0.13;0.13;;;;;;;;;;5115383;28;20406;-73
2021/11/24 08:44:02;;;;;;;0.13;0.13;;;;;;;;;;5114202;28;20262;-73
2021/11/24 08:46:28;;;;;;;0.10;0.10;;;;;;;;;;5119682;28;20508;-73
2021/11/24 08:48:55;;;;;;;0.10;0.10;;;;;;;;;;5104911;28;20269;-74
2021/11/24 08:51:21;;;;;;;0.10;0.10;;;;;;;;;;5121173;28;20201;-74
2021/11/24 08:53:49;;;;;;;0.10;0.10;;;;;;;;;;5112908;28;20209;-74
2021/11/24 08:56:16;;;;;;;0.20;0.20;;;;;;;;;;5119680;28;20400;-74
2021/11/24 08:58:42;;;;;;;0.10;0.10;;;;;;;;;;5125090;28;20252;-75
2021/11/24 09:01:09;;;;;;;0.10;0.10;;;;;;;;;;5123797;28;20233;-74
2021/11/24 09:03:35;;;;;;;0.20;0.20;;;;;;;;;;5123561;28;20205;-73
2021/11/24 09:06:03;;;;;;;0.10;0.10;;;;;;;;;;5124377;28;20245;-73
2021/11/24 09:08:30;;;;;;;0.10;0.10;;;;;;;;;;5122028;28;20551;-74
2021/11/24 09:10:58;;;;;;;0.10;0.10;;;;;;;;;;5122785;28;20380;-74
2021/11/24 09:13:24;;;;;;;0.10;0.10;;;;;;;;;;5119167;28;20204;-73
2021/11/24 09:15:51;;;;;;;0.10;0.10;;;;;;;;;;5124292;28;20200;-75
2021/11/24 09:18:17;;;;;;;0.10;0.10;;;;;;;;;;5119254;28;20202;-73
2021/11/24 09:20:44;;;;;;;0.10;0.10;;;;;;;;;;5118410;28;20226;-74
2021/11/24 09:23:11;;;;;;;0.10;0.10;;;;;;;;;;5107145;28;20395;-74
2021/11/24 09:25:40;;;;;;;0.10;0.10;;;;;;;;;;5122787;28;20222;-73
2021/11/24 09:28:10;;;;;;;0.13;0.13;;;;;;;;;;5113086;28;20390;-72
2021/11/24 09:30:37;;;;;;;0.10;0.10;;;;;;;;;;5120913;28;20242;-72
2021/11/24 09:33:04;;;;;;;0.10;0.10;;;;;;;;;;5116777;28;20202;-72
2021/11/24 09:35:31;;;;;;;0.10;0.10;;;;;;;;;;5123453;28;20505;-72
2021/11/24 09:37:57;;;;;;;0.10;0.10;;;;;;;;;;5120617;28;20491;-72
2021/11/24 09:40:24;;;;;;;0.10;0.10;;;;;;;;;;5114162;28;20418;-71
2021/11/24 09:42:52;;;;;;;0.10;0.10;;;;;;;;;;5114311;28;20415;-73
2021/11/24 09:45:20;;;;;;;0.10;0.10;;;;;;;;;;5123912;28;20397;-72
2021/11/24 09:47:48;;;;;;;0.10;0.10;;;;;;;;;;5109208;28;20222;-72
2021/11/24 09:50:16;;;;;;;0.10;0.10;;;;;;;;;;5123670;28;20202;-73
2021/11/24 09:52:44;;;;;;;0.10;0.10;;;;;;;;;;5118899;28;20205;-73
2021/11/24 09:55:11;;;;;;;0.10;0.10;;;;;;;;;;5121684;28;20203;-71
2021/11/24 09:57:37;;;;;;;0.10;0.10;;;;;;;;;;5123924;28;20382;-73
2021/11/24 10:00:05;;;;;;;0.10;0.10;;;;;;;;;;5123446;28;20250;-71
2021/11/24 10:02:33;;;;;;;0.10;0.10;;;;;;;;;;5122060;28;20507;-73
2021/11/24 10:04:59;;;;;;;0.10;0.10;;;;;;;;;;5110525;28;20287;-72
2021/11/24 10:07:25;;;;;;;0.10;0.10;;;;;;;;;;5113903;28;20217;-73
2021/11/24 10:09:52;;;;;;;0.10;0.10;;;;;;;;;;5123548;28;20209;-74
2021/11/24 10:12:18;;;;;;;0.10;0.10;;;;;;;;;;5112916;28;20247;-72
2021/11/24 10:14:45;;;;;;;0.13;0.13;;;;;;;;;;5113462;28;20213;-73
2021/11/24 10:17:13;;;;;;;0.10;0.10;;;;;;;;;;5115480;28;20205;-74
2021/11/24 10:19:41;;;;;;;0.10;0.10;;;;;;;;;;5131301;28;20210;-73
2021/11/24 10:22:09;;;;;;;0.10;0.10;;;;;;;;;;5114832;27;20556;-73
2021/11/24 10:24:37;;;;;;;0.10;0.10;;;;;;;;;;5123326;28;20207;-72
2021/11/24 10:27:04;;;;;;;0.10;0.10;;;;;;;;;;5117130;28;20436;-74
2021/11/24 10:29:31;;;;;;;0.10;0.10;;;;;;;;;;5122272;28;20202;-75
2021/11/24 10:31:58;;;;;;;0.10;0.10;;;;;;;;;;5120330;28;20245;-73
2021/11/24 10:34:26;;;;;;;0.10;0.10;;;;;;;;;;5122634;28;20206;-72
2021/11/24 10:36:55;;;;;;;0.10;0.10;;;;;;;;;;5123056;28;20504;-74
2021/11/24 10:39:22;;;;;;;0.10;0.10;;;;;;;;;;5122648;28;20550;-75
2021/11/24 10:41:49;;;;;;;0.10;0.10;;;;;;;;;;5119554;28;20215;-78
2021/11/24 10:44:24;;;;;;;0.10;0.10;;;;;;;;;;5127322;28;20447;-74
2021/11/24 10:46:52;;;;;;;0.10;0.10;;;;;;;;;;5120794;28;20190;-75
2021/11/24 10:49:19;;;;;;;0.10;0.10;;;;;;;;;;5115338;28;20211;-76
2021/11/24 10:51:45;;;;;;;0.10;0.10;;;;;;;;;;5126487;28;20203;-75
2021/11/24 10:54:15;;;;;;;0.10;0.10;;;;;;;;;;5119601;28;20255;-74
2021/11/24 10:57:05;;;;;;;0.10;0.10;;;;;;;;;;5128006;27;20212;-75
2021/11/24 10:59:32;;;;;;;0.10;0.10;;;;;;;;;;5115724;28;20270;-75
2021/11/24 11:02:19;;;;;;;0.10;0.10;;;;;;;;;;5114561;28;20409;-75
2021/11/24 11:04:58;;;;;;;0.10;0.10;;;;;;;;;;5116569;28;20227;-75
2021/11/24 11:07:25;;;;;;;0.10;0.10;;;;;;;;;;5115560;28;20207;-76
2021/11/24 11:10:00;;;;;;;0.10;0.10;;;;;;;;;;5124338;28;20535;-75
2021/11/24 11:12:28;;;;;;;0.10;0.10;;;;;;;;;;5126216;27;20193;-75
2021/11/24 11:14:54;;;;;;;0.10;0.10;;;;;;;;;;5108861;28;20499;-75
2021/11/24 11:17:21;;;;;;;0.10;0.10;;;;;;;;;;5114719;28;20251;-75
2021/11/24 11:19:49;;;;;;;0.10;0.10;;;;;;;;;;5121712;28;20235;-74
2021/11/24 11:22:17;;;;;;;0.10;0.10;;;;;;;;;;5125412;28;20220;-75
2021/11/24 11:24:44;;;;;;;0.10;0.10;;;;;;;;;;5120521;28;20205;-72
2021/11/24 11:27:11;;;;;;;0.10;0.10;;;;;;;;;;5111097;28;20257;-75
2021/11/24 11:29:40;;;;;;;0.10;0.10;;;;;;;;;;5121678;28;20203;-74
2021/11/24 11:32:07;;;;;;;0.10;0.10;;;;;;;;;;5121886;28;20262;-75
2021/11/24 11:34:34;;;;;;;0.10;0.10;;;;;;;;;;5121404;28;20205;-76
2021/11/24 11:37:01;;;;;;;0.10;0.10;;;;;;;;;;5119321;28;20210;-75
2021/11/24 11:39:27;;;;;;;0.10;0.10;;;;;;;;;;5122351;27;20207;-75
2021/11/24 11:41:53;;;;;;;0.10;0.10;;;;;;;;;;5121823;28;20275;-74
2021/11/24 11:44:22;;;;;;;0.10;0.10;;;;;;;;;;5112462;28;20614;-74
2021/11/24 11:46:50;;;;;;;0.20;0.20;;;;;;;;;;5125407;28;20202;-68
2021/11/24 11:49:18;;;;;;;0.10;0.10;;;;;;;;;;5125257;28;20403;-68
2021/11/24 11:51:45;;;;;;;0.20;0.20;;;;;;;;;;5120303;28;20201;-70
2021/11/24 11:54:12;;;;;;;0.10;0.10;;;;;;;;;;5123924;28;20237;-68
2021/11/24 11:56:42;;;;;;;0.10;0.10;;;;;;;;;;5124887;28;20203;-68
2021/11/24 11:59:09;;;;;;;0.10;0.10;;;;;;;;;;5123671;28;20405;-68
2021/11/24 12:01:54;;;;;;;0.10;0.10;;;;;;;;;;5117939;28;20421;-68
2021/11/24 12:04:21;;;;;;;0.10;0.10;;;;;;;;;;5123276;28;20230;-68
2021/11/24 12:06:48;;;;;;;0.10;0.10;;;;;;;;;;5117800;28;20202;-68
2021/11/24 12:09:16;;;;;;;0.10;0.10;;;;;;;;;;5117164;28;20216;-69
2021/11/24 12:11:57;;;;;;;0.10;0.10;;;;;;;;;;5127299;27;20227;-69
2021/11/24 12:14:56;;;;;;;0.17;0.17;;;;;;;;;;5125561;27;20230;-68
2021/11/24 12:17:39;;;;;;;0.10;0.10;;;;;;;;;;5034763;28;20276;-69
2021/11/24 12:20:23;;;;;;;0.10;0.10;;;;;;;;;;5036409;28;20197;-69
2021/11/24 12:22:53;;;;;;;0.10;0.10;;;;;;;;;;5093497;28;20214;-69
2021/11/24 12:25:38;;;;;;;0.10;0.10;;;;;;;;;;5124457;28;20493;-68
2021/11/24 12:28:06;;;;;;;0.70;0.70;;;;;;;;;;5124830;28;20506;-69
2021/11/24 12:31:08;;;;;;;0.10;0.10;;;;;;;;;;5118790;28;20207;-69
2021/11/24 12:33:38;;;;;;;0.10;0.10;;;;;;;;;;5124916;27;20240;-68
2021/11/24 12:36:07;;;;;;;0.10;0.10;;;;;;;;;;5120200;28;20206;-68
2021/11/24 12:38:34;;;;;;;0.10;0.10;;;;;;;;;;5121014;28;20204;-69
2021/11/24 12:41:03;;;;;;;0.10;0.10;;;;;;;;;;5117902;28;20578;-68
2021/11/24 12:43:32;;;;;;;0.10;0.10;;;;;;;;;;5118866;28;20199;-68
2021/11/24 12:46:03;;;;;;;0.10;0.10;;;;;;;;;;5117963;28;20211;-68
2021/11/24 12:48:30;;;;;;;0.10;0.10;;;;;;;;;;5124478;28;20206;-68
2021/11/24 12:50:59;;;;;;;0.10;0.10;;;;;;;;;;5117947;28;20199;-69
2021/11/24 12:53:25;;;;;;;0.10;0.10;;;;;;;;;;5120489;28;20280;-69
2021/11/24 12:56:03;;;;;;;0.20;0.20;;;;;;;;;;5122214;28;20429;-69
2021/11/24 12:58:30;;;;;;;0.10;0.10;;;;;;;;;;5120622;28;20390;-70
2021/11/24 13:00:56;;;;;;;0.17;0.17;;;;;;;;;;5111234;28;20239;-68
2021/11/24 13:03:26;;;;;;;0.10;0.10;;;;;;;;;;5119190;27;20255;-68
2021/11/24 13:05:55;;;;;;;0.10;0.10;;;;;;;;;;5117867;28;20231;-69
2021/11/24 13:08:23;;;;;;;0.10;0.10;;;;;;;;;;5117955;28;20211;-69
2021/11/24 13:11:00;;;;;;;0.10;0.10;;;;;;;;;;5123324;28;20207;-70
2021/11/24 13:13:26;;;;;;;0.10;0.10;;;;;;;;;;5120238;28;20304;-70
2021/11/24 13:15:53;;;;;;;0.10;0.10;;;;;;;;;;5118076;28;20211;-67
2021/11/24 13:18:20;;;;;;;0.10;0.10;;;;;;;;;;5116747;28;20251;-69
2021/11/24 13:20:47;;;;;;;0.10;0.10;;;;;;;;;;5123096;27;20253;-70
2021/11/24 13:23:14;;;;;;;0.13;0.13;;;;;;;;;;5124173;28;20383;-69
2021/11/24 13:25:42;;;;;;;0.10;0.10;;;;;;;;;;5117627;28;20206;-68
2021/11/24 13:28:10;;;;;;;0.10;0.10;;;;;;;;;;5118185;28;20202;-68
2021/11/24 13:30:37;;;;;;;0.10;0.10;;;;;;;;;;5117915;28;20199;-68
2021/11/24 13:33:05;;;;;;;0.10;0.10;;;;;;;;;;5105944;28;20241;-68
2021/11/24 13:35:32;;;;;;;0.10;0.10;;;;;;;;;;5131833;27;20375;-68
2021/11/24 13:37:59;;;;;;;0.10;0.10;;;;;;;;;;5123803;28;20368;-68
2021/11/24 13:40:36;;;;;;;0.10;0.10;;;;;;;;;;5116217;28;20202;-68
2021/11/24 13:43:04;;;;;;;0.10;0.10;;;;;;;;;;5120459;28;20232;-69
2021/11/24 13:45:32;;;;;;;0.10;0.10;;;;;;;;;;5117893;28;20268;-69
2021/11/24 13:48:07;;;;;;;0.10;0.10;;;;;;;;;;5121340;28;20205;-68
2021/11/24 13:50:34;;;;;;;0.10;0.10;;;;;;;;;;5120404;28;20197;-68
2021/11/24 13:53:15;;;;;;;0.10;0.10;;;;;;;;;;5120226;28;20206;-68
2021/11/24 13:55:42;;;;;;;0.10;0.10;;;;;;;;;;5119232;28;20240;-68
2021/11/24 13:58:09;;;;;;;0.10;0.10;;;;;;;;;;5120573;28;20211;-68
2021/11/24 14:00:36;;;;;;;0.10;0.10;;;;;;;;;;5123311;28;20215;-68
2021/11/24 14:03:02;;;;;;;0.10;0.10;;;;;;;;;;5109430;28;20222;-68
2021/11/24 14:05:34;;;;;;;0.10;0.10;;;;;;;;;;5115597;28;20222;-69
2021/11/24 14:08:01;;;;;;;0.10;0.10;;;;;;;;;;5121928;28;20263;-69
2021/11/24 14:10:29;;;;;;;0.10;0.10;;;;;;;;;;5108904;28;20257;-70
2021/11/24 14:12:57;;;;;;;0.10;0.10;;;;;;;;;;5111936;28;20477;-68
2021/11/24 14:15:26;;;;;;;0.10;0.10;;;;;;;;;;5111999;28;20203;-69
2021/11/24 14:17:53;;;;;;;0.10;0.10;;;;;;;;;;5119213;28;20214;-68
2021/11/24 14:20:30;;;;;;;0.10;0.10;;;;;;;;;;5109591;28;20212;-68
2021/11/24 14:22:58;;;;;;;0.10;0.10;;;;;;;;;;5112370;28;20210;-68
2021/11/24 14:25:26;;;;;;;0.10;0.10;;;;;;;;;;5110177;28;20507;-70
2021/11/24 14:27:54;;;;;;;0.20;0.20;;;;;;;;;;5118883;28;20239;-68
2021/11/24 14:30:21;;;;;;;0.10;0.10;;;;;;;;;;5119861;28;20239;-67
2021/11/24 14:32:49;;;;;;;0.10;0.10;;;;;;;;;;5115588;28;20446;-68
2021/11/24 14:35:17;;;;;;;0.20;0.20;;;;;;;;;;5109037;28;20202;-67
2021/11/24 14:37:45;;;;;;;0.10;0.10;;;;;;;;;;5114044;28;20516;-68
2021/11/24 14:40:12;;;;;;;0.10;0.10;;;;;;;;;;5120649;28;20214;-68
2021/11/24 14:42:38;;;;;;;0.10;0.10;;;;;;;;;;5127351;28;20216;-70
2021/11/24 14:45:05;;;;;;;0.10;0.10;;;;;;;;;;5130181;28;20203;-69
2021/11/24 14:47:32;;;;;;;0.17;0.17;;;;;;;;;;5120749;28;20198;-68
2021/11/24 14:49:59;;;;;;;0.10;0.10;;;;;;;;;;5114658;28;20211;-69